createdAt,value
2022-12-03T00:00:29.748Z,54.81
2022-12-03T00:02:59.401Z,55.01
2022-12-03T00:05:27.558Z,54.88
2022-12-03T00:07:56.981Z,54.88
2022-12-03T00:10:25.263Z,54.90
2022-12-03T00:12:53.319Z,55.02
2022-12-03T00:15:21.611Z,55.09
2022-12-03T00:17:49.743Z,55.02
2022-12-03T00:20:21.033Z,55.13
2022-12-03T00:22:49.081Z,55.16
2022-12-03T00:25:17.096Z,55.20
2022-12-03T00:27:45.085Z,55.26
2022-12-03T00:30:13.939Z,55.30
2022-12-03T00:32:41.862Z,55.39
2022-12-03T00:35:10.155Z,55.38
2022-12-03T00:37:39.452Z,55.44
2022-12-03T00:40:08.634Z,55.31
2022-12-03T00:42:36.580Z,55.36
2022-12-03T00:45:04.907Z,55.33
2022-12-03T00:47:32.840Z,55.38
2022-12-03T00:50:00.903Z,55.42
2022-12-03T00:52:28.817Z,55.21
2022-12-03T00:54:58.092Z,55.27
2022-12-03T00:57:26.070Z,55.28
2022-12-03T00:59:53.966Z,55.24
2022-12-03T01:02:22.120Z,55.21
2022-12-03T01:04:50.270Z,55.28
2022-12-03T01:07:18.503Z,55.38
2022-12-03T01:09:46.401Z,55.28
2022-12-03T01:12:15.714Z,55.11
2022-12-03T01:14:43.669Z,55.18
2022-12-03T01:17:12.445Z,54.95
2022-12-03T01:19:46.540Z,54.85
2022-12-03T01:22:16.066Z,54.77
2022-12-03T01:24:43.961Z,54.41
2022-12-03T01:27:11.873Z,54.48
2022-12-03T01:29:41.248Z,54.49
2022-12-03T01:32:19.193Z,54.37
2022-12-03T01:34:47.518Z,54.26
2022-12-03T01:37:15.588Z,54.17
2022-12-03T01:39:43.539Z,53.99
2022-12-03T01:42:13.869Z,53.90
2022-12-03T01:44:43.144Z,53.99
2022-12-03T01:47:13.874Z,53.99
2022-12-03T01:49:43.482Z,54.02
2022-12-03T01:52:13.047Z,53.85
2022-12-03T01:54:42.478Z,53.88
2022-12-03T01:57:18.586Z,53.79
2022-12-03T01:59:47.964Z,53.63
2022-12-03T02:02:16.453Z,53.70
2022-12-03T02:04:44.359Z,53.76
2022-12-03T02:07:26.212Z,53.76
2022-12-03T02:09:54.604Z,53.53
2022-12-03T02:12:24.828Z,53.67
2022-12-03T02:14:54.329Z,53.45
2022-12-03T02:17:22.422Z,53.33
2022-12-03T02:19:50.392Z,53.54
2022-12-03T02:22:24.833Z,53.46
2022-12-03T02:24:55.402Z,53.28
2022-12-03T02:27:24.912Z,53.13
2022-12-03T02:29:52.800Z,53.03
2022-12-03T02:32:21.253Z,53.06
2022-12-03T02:34:49.218Z,52.92
2022-12-03T02:37:18.293Z,52.96
2022-12-03T02:39:47.931Z,52.92
2022-12-03T02:42:33.618Z,53.00
2022-12-03T02:45:05.630Z,52.82
2022-12-03T02:47:34.428Z,52.64
2022-12-03T02:50:02.403Z,52.76
2022-12-03T02:52:30.302Z,52.80
2022-12-03T02:54:58.250Z,52.63
2022-12-03T02:57:26.274Z,52.65
2022-12-03T02:59:54.195Z,52.49
2022-12-03T03:02:23.625Z,52.53
2022-12-03T03:04:51.926Z,52.48
2022-12-03T03:07:20.179Z,52.14
2022-12-03T03:09:48.140Z,52.26
2022-12-03T03:12:16.045Z,51.99
2022-12-03T03:14:43.972Z,52.04
2022-12-03T03:17:11.922Z,51.79
2022-12-03T03:19:41.192Z,51.83
2022-12-03T03:22:10.594Z,51.89
2022-12-03T03:24:38.539Z,51.57
2022-12-03T03:27:06.475Z,51.76
2022-12-03T03:29:34.450Z,51.77
2022-12-03T03:32:02.470Z,51.69
2022-12-03T03:34:30.415Z,51.94
2022-12-03T03:36:59.796Z,51.93
2022-12-03T03:39:27.768Z,52.29
2022-12-03T03:41:55.675Z,52.15
2022-12-03T03:44:23.661Z,51.97
2022-12-03T03:46:51.589Z,51.86
2022-12-03T03:49:19.634Z,51.43
2022-12-03T03:51:47.514Z,50.83
2022-12-03T03:54:16.895Z,50.86
2022-12-03T03:56:44.781Z,50.44
2022-12-03T03:59:13.805Z,50.27
2022-12-03T04:01:41.875Z,50.17
2022-12-03T04:04:14.776Z,49.79
2022-12-03T04:06:42.806Z,49.79
2022-12-03T04:09:10.721Z,49.33
2022-12-03T04:11:57.316Z,49.28
2022-12-03T04:14:25.331Z,48.84
2022-12-03T04:16:53.272Z,48.90
2022-12-03T04:19:21.275Z,48.99
2022-12-03T04:22:06.558Z,48.89
2022-12-03T04:24:34.506Z,48.93
2022-12-03T04:27:21.218Z,48.83
2022-12-03T04:29:49.171Z,49.02
2022-12-03T04:32:34.682Z,49.26
2022-12-03T04:35:19.948Z,49.42
2022-12-03T04:37:47.900Z,49.42
2022-12-03T04:40:29.858Z,49.42
2022-12-03T04:42:59.107Z,49.23
2022-12-03T04:45:27.148Z,49.53
2022-12-03T04:47:55.172Z,49.62
2022-12-03T04:50:23.134Z,49.30
2022-12-03T04:52:51.074Z,49.30
2022-12-03T04:55:19.060Z,49.19
2022-12-03T04:57:46.945Z,48.99
2022-12-03T05:00:17.519Z,49.00
2022-12-03T05:02:45.492Z,48.99
2022-12-03T05:05:13.473Z,49.02
2022-12-03T05:07:41.439Z,48.75
2022-12-03T05:10:09.781Z,48.54
2022-12-03T05:12:37.744Z,48.46
2022-12-03T05:15:06.543Z,48.29
2022-12-03T05:17:35.860Z,48.17
2022-12-03T05:20:21.157Z,48.22
2022-12-03T05:22:49.129Z,48.12
2022-12-03T05:25:17.247Z,48.14
2022-12-03T05:27:45.145Z,48.12
2022-12-03T05:30:13.687Z,48.02
2022-12-03T05:32:42.989Z,48.05
2022-12-03T05:35:11.210Z,47.97
2022-12-03T05:37:39.118Z,48.18
2022-12-03T05:40:09.575Z,48.31
2022-12-03T05:42:56.907Z,48.21
2022-12-03T05:45:25.221Z,48.39
2022-12-03T05:47:54.759Z,48.36
2022-12-03T05:50:23.093Z,48.51
2022-12-03T05:52:51.043Z,48.44
2022-12-03T05:55:19.169Z,48.50
2022-12-03T05:57:47.696Z,48.70
2022-12-03T06:00:17.023Z,48.77
2022-12-03T06:02:45.273Z,48.75
2022-12-03T06:05:15.005Z,48.74
2022-12-03T06:07:43.057Z,48.75
2022-12-03T06:10:12.447Z,48.80
2022-12-03T06:12:40.384Z,48.63
2022-12-03T06:15:09.025Z,48.75
2022-12-03T06:17:36.928Z,48.58
2022-12-03T06:20:05.082Z,48.52
2022-12-03T06:22:34.408Z,48.44
2022-12-03T06:25:06.601Z,48.32
2022-12-03T06:27:35.177Z,48.28
2022-12-03T06:30:03.203Z,48.42
2022-12-03T06:32:31.126Z,48.40
2022-12-03T06:34:59.056Z,48.34
2022-12-03T06:37:27.015Z,48.56
2022-12-03T06:39:56.345Z,48.72
2022-12-03T06:42:24.280Z,48.52
2022-12-03T06:44:52.712Z,48.58
2022-12-03T06:47:20.910Z,48.50
2022-12-03T06:49:48.830Z,48.57
2022-12-03T06:52:16.872Z,48.75
2022-12-03T06:54:44.825Z,48.70
2022-12-03T06:57:14.120Z,48.75
2022-12-03T06:59:42.064Z,48.51
2022-12-03T07:02:11.093Z,48.18
2022-12-03T07:04:42.111Z,48.42
2022-12-03T07:07:12.723Z,48.10
2022-12-03T07:09:40.625Z,48.29
2022-12-03T07:12:08.726Z,48.16
2022-12-03T07:14:38.044Z,48.28
2022-12-03T07:17:05.978Z,48.24
2022-12-03T07:19:33.931Z,48.27
2022-12-03T07:22:01.904Z,48.46
2022-12-03T07:24:29.823Z,48.44
2022-12-03T07:26:57.750Z,48.44
2022-12-03T07:29:25.660Z,47.96
2022-12-03T07:31:55.136Z,48.21
2022-12-03T07:34:23.103Z,48.16
2022-12-03T07:36:51.031Z,47.92
2022-12-03T07:39:19.013Z,47.57
2022-12-03T07:41:46.951Z,47.64
2022-12-03T07:44:15.029Z,47.71
2022-12-03T07:46:43.159Z,47.80
2022-12-03T07:49:13.325Z,47.58
2022-12-03T07:51:41.257Z,47.65
2022-12-03T07:54:09.435Z,47.87
2022-12-03T07:56:37.466Z,47.75
2022-12-03T07:59:05.403Z,47.71
2022-12-03T08:01:33.368Z,47.98
2022-12-03T08:04:01.496Z,48.09
2022-12-03T08:06:30.875Z,47.98
2022-12-03T08:08:58.838Z,48.01
2022-12-03T08:11:27.470Z,47.81
2022-12-03T08:13:55.385Z,47.91
2022-12-03T08:16:23.489Z,48.00
2022-12-03T08:18:51.641Z,47.90
2022-12-03T08:21:20.890Z,48.04
2022-12-03T08:23:50.293Z,47.88
2022-12-03T08:26:22.599Z,47.80
2022-12-03T08:28:50.602Z,47.56
2022-12-03T08:31:19.725Z,47.41
2022-12-03T08:33:48.578Z,47.44
2022-12-03T08:36:18.506Z,47.07
2022-12-03T08:38:47.593Z,46.89
2022-12-03T08:41:37.108Z,46.90
2022-12-03T08:44:16.424Z,47.00
2022-12-03T08:46:44.394Z,47.00
2022-12-03T08:49:12.735Z,47.23
2022-12-03T08:51:40.654Z,47.19
2022-12-03T08:54:14.292Z,47.19
2022-12-03T08:56:44.906Z,47.21
2022-12-03T08:59:22.983Z,47.36
2022-12-03T09:01:51.573Z,47.41
2022-12-03T09:04:30.397Z,47.29
2022-12-03T09:06:58.540Z,47.42
2022-12-03T09:09:26.584Z,47.50
2022-12-03T09:11:55.974Z,47.05
2022-12-03T09:14:23.976Z,47.07
2022-12-03T09:16:55.578Z,47.25
2022-12-03T09:19:27.000Z,47.28
2022-12-03T09:21:55.255Z,46.28
2022-12-03T09:24:23.211Z,45.87
2022-12-03T09:26:51.366Z,45.98
2022-12-03T09:29:22.548Z,46.10
2022-12-03T09:31:51.078Z,45.91
2022-12-03T09:34:19.169Z,45.76
2022-12-03T09:36:47.103Z,45.99
2022-12-03T09:39:15.048Z,45.89
2022-12-03T09:41:43.008Z,45.81
2022-12-03T09:44:15.761Z,45.31
2022-12-03T09:46:47.175Z,44.93
2022-12-03T09:49:16.317Z,44.50
2022-12-03T09:51:44.336Z,44.62
2022-12-03T09:54:12.280Z,44.70
2022-12-03T09:56:40.246Z,44.84
2022-12-03T09:59:10.535Z,45.09
2022-12-03T10:01:41.024Z,44.90
2022-12-03T10:04:10.697Z,45.23
2022-12-03T10:06:45.268Z,45.18
2022-12-03T10:09:17.423Z,45.22
2022-12-03T10:11:45.529Z,45.35
2022-12-03T10:14:13.672Z,45.43
2022-12-03T10:16:41.708Z,45.37
2022-12-03T10:19:12.926Z,45.58
2022-12-03T10:21:41.093Z,45.72
2022-12-03T10:24:30.154Z,45.79
2022-12-03T10:26:58.979Z,45.80
2022-12-03T10:29:33.266Z,45.94
2022-12-03T10:32:20.047Z,46.33
2022-12-03T10:34:49.347Z,46.24
2022-12-03T10:37:17.994Z,46.39
2022-12-03T10:39:56.928Z,46.40
2022-12-03T10:42:25.168Z,46.44
2022-12-03T10:45:13.598Z,46.59
2022-12-03T10:47:41.849Z,46.61
2022-12-03T10:50:18.103Z,46.67
2022-12-03T10:52:46.372Z,46.74
2022-12-03T10:55:14.336Z,47.01
2022-12-03T10:57:45.578Z,47.24
2022-12-03T11:00:17.386Z,47.46
2022-12-03T11:02:45.471Z,47.64
2022-12-03T11:05:16.871Z,47.79
2022-12-03T11:07:45.055Z,47.89
2022-12-03T11:10:16.464Z,47.74
2022-12-03T11:12:45.279Z,47.97
2022-12-03T11:15:16.611Z,47.98
2022-12-03T11:17:49.415Z,48.10
2022-12-03T11:20:50.462Z,47.89
2022-12-03T11:23:29.727Z,48.03
2022-12-03T11:25:57.828Z,48.13
2022-12-03T11:28:39.805Z,48.25
2022-12-03T11:31:12.436Z,48.21
2022-12-03T11:33:41.101Z,48.30
2022-12-03T11:36:31.630Z,48.36
2022-12-03T11:39:05.985Z,48.24
2022-12-03T11:41:34.925Z,48.26
2022-12-03T11:44:30.271Z,48.21
2022-12-03T11:47:02.359Z,48.05
2022-12-03T11:49:33.464Z,48.03
2022-12-03T11:52:02.718Z,47.82
2022-12-03T11:54:35.688Z,48.06
2022-12-03T11:57:03.945Z,48.11
2022-12-03T11:59:32.022Z,47.93
2022-12-03T12:02:00.044Z,47.77
2022-12-03T12:04:32.717Z,47.90
2022-12-03T12:07:00.865Z,47.68
2022-12-03T12:09:55.274Z,47.94
2022-12-03T12:12:29.815Z,47.78
2022-12-03T12:14:57.959Z,47.98
2022-12-03T12:17:33.477Z,47.87
2022-12-03T12:20:25.960Z,47.80
2022-12-03T12:22:54.202Z,48.00
2022-12-03T12:25:41.755Z,48.04
2022-12-03T12:28:09.739Z,47.84
2022-12-03T12:30:37.648Z,47.90
2022-12-03T12:33:20.981Z,47.82
2022-12-03T12:35:48.875Z,47.79
2022-12-03T12:38:18.051Z,47.80
2022-12-03T12:40:49.367Z,47.89
2022-12-03T12:43:24.375Z,47.91
2022-12-03T12:45:53.517Z,48.12
2022-12-03T12:48:26.512Z,47.94
2022-12-03T12:51:01.653Z,47.86
2022-12-03T12:53:30.439Z,48.03
2022-12-03T12:56:00.612Z,48.07
2022-12-03T12:58:31.035Z,48.26
2022-12-03T13:00:59.886Z,48.18
2022-12-03T13:03:29.097Z,48.36
2022-12-03T13:05:57.842Z,48.28
2022-12-03T13:08:27.528Z,48.05
2022-12-03T13:10:55.757Z,48.17
2022-12-03T13:13:27.315Z,48.60
2022-12-03T13:16:02.660Z,48.41
2022-12-03T13:18:45.212Z,48.43
2022-12-03T13:21:23.111Z,48.44
2022-12-03T13:23:52.082Z,48.39
2022-12-03T13:26:34.486Z,47.88
2022-12-03T13:29:13.147Z,47.74
2022-12-03T13:31:44.140Z,47.82
2022-12-03T13:34:14.939Z,47.75
2022-12-03T13:36:44.081Z,47.80
2022-12-03T13:39:14.973Z,47.92
2022-12-03T13:42:00.814Z,47.79
2022-12-03T13:44:30.556Z,47.97
2022-12-03T13:46:58.461Z,48.40
2022-12-03T13:49:26.394Z,48.41
2022-12-03T13:51:54.374Z,48.49
2022-12-03T13:54:23.114Z,48.60
2022-12-03T13:56:51.128Z,48.66
2022-12-03T13:59:24.498Z,48.78
2022-12-03T14:01:55.428Z,48.90
2022-12-03T14:04:23.421Z,48.90
2022-12-03T14:06:51.407Z,48.85
2022-12-03T14:09:19.321Z,49.03
2022-12-03T14:12:04.824Z,49.20
2022-12-03T14:14:32.781Z,49.17
2022-12-03T14:17:02.164Z,49.25
2022-12-03T14:19:30.198Z,49.32
2022-12-03T14:21:58.133Z,49.41
2022-12-03T14:24:26.179Z,49.33
2022-12-03T14:26:54.147Z,49.27
2022-12-03T14:29:22.066Z,49.29
2022-12-03T14:31:50.061Z,49.33
2022-12-03T14:34:19.378Z,49.24
2022-12-03T14:36:47.296Z,49.53
2022-12-03T14:39:15.195Z,49.52
2022-12-03T14:42:00.493Z,49.42
2022-12-03T14:44:28.395Z,49.43
2022-12-03T14:46:57.479Z,49.69
2022-12-03T14:49:27.382Z,49.53
2022-12-03T14:51:55.295Z,49.38
2022-12-03T14:54:23.245Z,49.63
2022-12-03T14:56:51.175Z,49.37
2022-12-03T14:59:21.842Z,49.49
2022-12-03T15:01:54.126Z,49.33
2022-12-03T15:04:22.303Z,49.32
2022-12-03T15:06:51.638Z,49.45
2022-12-03T15:09:19.580Z,49.45
2022-12-03T15:11:47.463Z,49.48
2022-12-03T15:14:15.385Z,49.37
2022-12-03T15:16:43.379Z,49.61
2022-12-03T15:19:14.111Z,49.48
2022-12-03T15:21:42.138Z,49.50
2022-12-03T15:24:11.615Z,49.45
2022-12-03T15:26:39.570Z,49.47
2022-12-03T15:29:07.528Z,49.41
2022-12-03T15:31:35.568Z,49.50
2022-12-03T15:34:03.544Z,49.52
2022-12-03T15:36:33.974Z,49.78
2022-12-03T15:39:01.988Z,49.85
2022-12-03T15:41:31.508Z,49.99
2022-12-03T15:44:00.040Z,49.94
2022-12-03T15:46:28.574Z,50.10
2022-12-03T15:48:56.614Z,50.07
2022-12-03T15:51:24.582Z,50.03
2022-12-03T15:53:52.559Z,49.98
2022-12-03T15:56:20.630Z,50.03
2022-12-03T15:58:49.971Z,50.06
2022-12-03T16:01:21.030Z,49.93
2022-12-03T16:03:49.057Z,50.10
2022-12-03T16:06:18.273Z,50.10
2022-12-03T16:08:46.293Z,50.18
2022-12-03T16:11:14.197Z,50.17
2022-12-03T16:13:42.187Z,50.16
2022-12-03T16:16:11.562Z,50.33
2022-12-03T16:18:39.529Z,50.23
2022-12-03T16:21:07.583Z,50.46
2022-12-03T16:23:35.571Z,50.48
2022-12-03T16:26:03.521Z,50.39
2022-12-03T16:28:31.578Z,50.41
2022-12-03T16:30:59.643Z,50.51
2022-12-03T16:33:29.137Z,50.58
2022-12-03T16:35:57.118Z,50.75
2022-12-03T16:38:25.077Z,50.68
2022-12-03T16:40:53.099Z,50.74
2022-12-03T16:43:21.106Z,50.58
2022-12-03T16:46:20.587Z,50.77
2022-12-03T16:48:50.195Z,50.74
2022-12-03T16:51:19.309Z,51.03
2022-12-03T16:53:47.299Z,50.67
2022-12-03T16:56:15.462Z,50.72
2022-12-03T16:58:43.368Z,50.69
2022-12-03T17:01:11.609Z,50.70
2022-12-03T17:03:39.707Z,50.75
2022-12-03T17:06:09.189Z,50.43
2022-12-03T17:08:37.155Z,50.62
2022-12-03T17:11:05.223Z,50.56
2022-12-03T17:13:33.225Z,50.28
2022-12-03T17:16:01.654Z,50.18
2022-12-03T17:18:29.610Z,49.99
2022-12-03T17:20:57.501Z,50.12
2022-12-03T17:23:27.020Z,50.11
2022-12-03T17:25:55.041Z,50.19
2022-12-03T17:28:22.961Z,50.23
2022-12-03T17:30:50.930Z,50.26
2022-12-03T17:33:18.897Z,50.11
2022-12-03T17:35:46.920Z,49.97
2022-12-03T17:38:14.823Z,50.06
2022-12-03T17:40:44.128Z,50.12
2022-12-03T17:43:12.022Z,50.21
2022-12-03T17:45:39.957Z,50.00
2022-12-03T17:48:08.458Z,50.33
2022-12-03T17:50:36.362Z,50.00
2022-12-03T17:53:05.512Z,49.96
2022-12-03T17:55:39.764Z,50.01
2022-12-03T17:58:13.585Z,49.95
2022-12-03T18:00:41.494Z,50.11
2022-12-03T18:03:09.416Z,50.10
2022-12-03T18:05:37.390Z,50.26
2022-12-03T18:08:05.769Z,50.27
2022-12-03T18:10:33.752Z,50.51
2022-12-03T18:13:02.431Z,50.67
2022-12-03T18:15:32.098Z,50.63
2022-12-03T18:18:00.009Z,50.62
2022-12-03T18:20:28.002Z,50.54
2022-12-03T18:22:55.912Z,50.57
2022-12-03T18:25:23.911Z,50.46
2022-12-03T18:27:51.968Z,50.45
2022-12-03T18:30:20.041Z,50.36
2022-12-03T18:32:49.794Z,50.54
2022-12-03T18:35:18.155Z,50.64
2022-12-03T18:37:46.101Z,50.51
2022-12-03T18:40:18.611Z,50.48
2022-12-03T18:42:46.802Z,50.56
2022-12-03T18:45:14.975Z,50.61
2022-12-03T18:47:43.143Z,50.51
2022-12-03T18:50:12.818Z,50.58
2022-12-03T18:52:40.827Z,50.57
2022-12-03T18:55:09.937Z,50.48
2022-12-03T18:57:37.869Z,50.41
2022-12-03T19:00:13.098Z,50.44
2022-12-03T19:05:31.122Z,50.34
2022-12-03T19:07:59.188Z,50.49
2022-12-03T19:10:27.229Z,50.30
2022-12-03T19:12:55.218Z,50.15
2022-12-03T19:15:24.184Z,50.09
2022-12-03T19:17:52.187Z,50.22
2022-12-03T19:20:20.285Z,50.25
2022-12-03T19:22:49.695Z,50.13
2022-12-03T19:25:17.803Z,50.09
2022-12-03T19:27:45.705Z,49.87
2022-12-03T19:30:14.265Z,49.90
2022-12-03T19:32:42.184Z,49.87
2022-12-03T19:35:11.462Z,50.00
2022-12-03T19:37:39.604Z,49.92
2022-12-03T19:40:11.367Z,50.01
2022-12-03T19:42:40.021Z,50.10
2022-12-03T19:45:08.655Z,50.03
2022-12-03T19:47:36.669Z,50.08
2022-12-03T19:50:04.952Z,50.01
2022-12-03T19:52:35.252Z,50.07
2022-12-03T19:55:03.278Z,50.12
2022-12-03T19:57:32.596Z,50.08
2022-12-03T20:00:01.158Z,50.20
2022-12-03T20:02:29.305Z,50.29
2022-12-03T20:04:57.350Z,50.30
2022-12-03T20:07:25.265Z,50.24
2022-12-03T20:09:53.624Z,50.44
2022-12-03T20:12:21.814Z,50.41
2022-12-03T20:14:51.719Z,50.46
2022-12-03T20:17:19.669Z,50.34
2022-12-03T20:19:47.842Z,50.44
2022-12-03T20:22:15.745Z,50.22
2022-12-03T20:24:43.774Z,49.92
2022-12-03T20:27:11.733Z,49.99
2022-12-03T20:29:39.940Z,49.87
2022-12-03T20:32:09.330Z,49.57
2022-12-03T20:34:37.321Z,49.35
2022-12-03T20:37:05.264Z,49.42
2022-12-03T20:39:33.188Z,49.08
2022-12-03T20:42:01.142Z,49.10
2022-12-03T20:44:29.193Z,49.00
2022-12-03T20:46:57.154Z,48.97
2022-12-03T20:49:26.439Z,48.94
2022-12-03T20:51:54.355Z,48.71
2022-12-03T20:54:22.297Z,48.72
2022-12-03T20:56:50.249Z,48.59
2022-12-03T20:59:18.247Z,48.56
2022-12-03T21:01:46.345Z,48.59
2022-12-03T21:04:16.184Z,48.67
2022-12-03T21:06:45.606Z,48.54
2022-12-03T21:09:13.841Z,48.69
2022-12-03T21:11:42.595Z,48.62
2022-12-03T21:14:11.160Z,48.60
2022-12-03T21:17:07.369Z,48.61
2022-12-03T21:19:27.487Z,48.56
2022-12-03T21:21:56.761Z,48.59
2022-12-03T21:24:24.684Z,48.62
2022-12-03T21:26:52.740Z,48.48
2022-12-03T21:29:20.671Z,48.61
2022-12-03T21:31:48.583Z,48.47
2022-12-03T21:34:16.621Z,48.52
2022-12-03T21:36:44.579Z,48.41
2022-12-03T21:39:13.894Z,48.47
2022-12-03T21:41:42.102Z,48.39
2022-12-03T21:44:30.093Z,48.35
2022-12-03T21:47:11.700Z,48.21
2022-12-03T21:49:42.128Z,48.09
2022-12-03T21:52:10.255Z,47.95
2022-12-03T21:54:39.843Z,48.22
2022-12-03T21:57:07.815Z,48.36
2022-12-03T21:59:35.717Z,48.41
2022-12-03T22:02:03.804Z,48.56
2022-12-03T22:04:31.863Z,48.68
2022-12-03T22:06:59.826Z,48.91
2022-12-03T22:09:27.818Z,48.88
2022-12-03T22:11:59.320Z,49.06
2022-12-03T22:14:27.317Z,49.10
2022-12-03T22:16:55.252Z,49.09
2022-12-03T22:19:23.480Z,49.25
2022-12-03T22:21:51.511Z,49.33
2022-12-03T22:24:19.641Z,49.42
2022-12-03T22:26:47.584Z,49.44
2022-12-03T22:29:16.882Z,49.48
2022-12-03T22:31:44.855Z,49.40
2022-12-03T22:34:12.769Z,49.26
2022-12-03T22:36:40.650Z,49.41
2022-12-03T22:39:08.860Z,49.57
2022-12-03T22:41:36.805Z,49.55
2022-12-03T22:44:04.713Z,49.59
2022-12-03T22:46:34.124Z,49.76
2022-12-03T22:49:07.135Z,49.55
2022-12-03T22:51:35.656Z,49.63
2022-12-03T22:54:03.801Z,49.62
2022-12-03T22:56:31.808Z,49.62
2022-12-03T22:58:59.774Z,49.73
2022-12-03T23:01:28.514Z,49.64
2022-12-03T23:03:57.855Z,49.68
2022-12-03T23:06:25.826Z,49.67
2022-12-03T23:08:53.831Z,49.59
2022-12-03T23:11:22.043Z,49.53
2022-12-03T23:13:50.028Z,49.50
2022-12-03T23:16:19.066Z,49.51
2022-12-03T23:18:47.406Z,49.62
2022-12-03T23:21:17.662Z,49.67
2022-12-03T23:23:45.777Z,49.54
2022-12-03T23:26:14.284Z,49.62
2022-12-03T23:28:42.888Z,49.69
2022-12-03T23:31:16.772Z,49.66
2022-12-03T23:33:44.757Z,49.62
2022-12-03T23:36:12.866Z,49.70
2022-12-03T23:38:42.181Z,49.83
2022-12-03T23:41:11.729Z,49.74
2022-12-03T23:43:39.677Z,49.79
2022-12-03T23:46:08.369Z,49.82
2022-12-03T23:48:36.378Z,49.76
2022-12-03T23:51:06.540Z,49.89
2022-12-03T23:53:34.818Z,49.80
2022-12-03T23:56:06.988Z,49.72
2022-12-03T23:58:35.060Z,49.75
